RS-0006 weather

Backi Monostor Airfield
Sombor, West Bačka, Serbia

Public forecast

Using degrees Celsius for public forecast. Weather courtesy of forecast.io.

METAR (pilot weather report)

Closest report is Osijek Airport, 21.2 nm (39.4 km) SSW. Retrieved 2019/06/16 16:30 UTC (0 seconds ago):

LDOS 161630Z 01011KT 9999 FEW040TCU SCT045 26/15 Q1013

TAF (pilot weather forecast)

Closest forecast is Osijek Airport, 21.2 nm (39.4 km) SSW. Retrieved 2019/06/16 12:27 UTC (4 hours ago):

TAF LDOS 161125Z 1612/1712 11008KT CAVOK TX33/1613Z TN17/1623Z BECMG 1615/1617 02010KT TEMPO 1618/1700 2000 +TSRA SCT020CB BKN040 PROB30 TEMPO 1618/1622 VRB20G30KT 1500 +TSGR BKN015CB BKN040 PROB30 TEMPO 1710/1712 TSRA FEW030CB BKN035